Cave, Illinois
Current Conditions -  °F | °C
As of 3:35 AM on Friday 24 Oct 2014 (Local Time) from KHSB Reporting Station
Broken Clouds Broken Clouds  
Wind Chill: 44°   Ceiling: 4100
Heat Index: 44°   Visibility: 7mi
Dew Point: 44°   Wind: 0mph
Humidity: 100%   Direction: NA
Pressure: 30.12"   Gusts: NA
Location:  37.8635°N, 88.7619°W
Report Text: KHSB 240835Z AUTO 00000KT 7SM BKN041 BKN048 07/07 A3012 RMK AO2 T00670067
Loading
Personal Weather Stations






























Interactive Weather Map
Tropical Storm Tracking
New forecast layout! Learn more

10-Day Weather Forecast

Advertisements
Track Severe Weather on mobile